sensor_id;sensor_type;location;lat;lon;timestamp;temperature;humidity
3172;DHT22;1597;51.572;6.992;2023-06-10T00:02:08;22.40;1.00
3172;DHT22;1597;51.572;6.992;2023-06-10T00:04:34;22.30;1.00
3172;DHT22;1597;51.572;6.992;2023-06-10T00:07:05;22.30;1.00
3172;DHT22;1597;51.572;6.992;2023-06-10T00:09:35;22.30;1.00
3172;DHT22;1597;51.572;6.992;2023-06-10T00:12:07;22.30;1.00
3172;DHT22;1597;51.572;6.992;2023-06-10T00:14:39;22.30;1.20
3172;DHT22;1597;51.572;6.992;2023-06-10T00:17:06;22.20;1.40
3172;DHT22;1597;51.572;6.992;2023-06-10T00:19:34;22.20;2.30
3172;DHT22;1597;51.572;6.992;2023-06-10T00:22:00;22.20;3.00
3172;DHT22;1597;51.572;6.992;2023-06-10T00:24:26;22.20;3.50
3172;DHT22;1597;51.572;6.992;2023-06-10T00:26:52;22.10;4.20
3172;DHT22;1597;51.572;6.992;2023-06-10T00:29:19;22.10;4.70
3172;DHT22;1597;51.572;6.992;2023-06-10T00:31:45;22.10;6.40
3172;DHT22;1597;51.572;6.992;2023-06-10T00:34:12;22.10;8.30
3172;DHT22;1597;51.572;6.992;2023-06-10T00:36:38;22.10;9.70
3172;DHT22;1597;51.572;6.992;2023-06-10T00:39:04;22.00;11.10
3172;DHT22;1597;51.572;6.992;2023-06-10T00:41:30;22.00;13.60
3172;DHT22;1597;51.572;6.992;2023-06-10T00:43:56;21.90;15.60
3172;DHT22;1597;51.572;6.992;2023-06-10T00:46:23;21.90;18.20
3172;DHT22;1597;51.572;6.992;2023-06-10T00:48:51;21.80;20.00
3172;DHT22;1597;51.572;6.992;2023-06-10T00:51:18;21.80;22.90
3172;DHT22;1597;51.572;6.992;2023-06-10T00:53:45;21.80;23.00
3172;DHT22;1597;51.572;6.992;2023-06-10T00:56:10;21.80;24.30
3172;DHT22;1597;51.572;6.992;2023-06-10T00:58:36;21.70;26.00
3172;DHT22;1597;51.572;6.992;2023-06-10T01:01:03;21.70;28.20
3172;DHT22;1597;51.572;6.992;2023-06-10T01:03:29;21.70;29.90
3172;DHT22;1597;51.572;6.992;2023-06-10T01:06:29;21.70;29.10
3172;DHT22;1597;51.572;6.992;2023-06-10T01:12:39;21.60;35.50
3172;DHT22;1597;51.572;6.992;2023-06-10T01:15:08;21.60;35.90
3172;DHT22;1597;51.572;6.992;2023-06-10T01:17:53;21.50;39.50
3172;DHT22;1597;51.572;6.992;2023-06-10T01:20:27;21.50;41.40
3172;DHT22;1597;51.572;6.992;2023-06-10T01:23:01;21.50;43.20
3172;DHT22;1597;51.572;6.992;2023-06-10T01:25:29;21.50;44.90
3172;DHT22;1597;51.572;6.992;2023-06-10T01:28:10;21.50;45.90
3172;DHT22;1597;51.572;6.992;2023-06-10T01:33:51;21.40;50.20
3172;DHT22;1597;51.572;6.992;2023-06-10T01:36:18;21.30;52.40
3172;DHT22;1597;51.572;6.992;2023-06-10T01:38:46;21.30;53.50
3172;DHT22;1597;51.572;6.992;2023-06-10T01:41:14;21.20;54.80
3172;DHT22;1597;51.572;6.992;2023-06-10T01:43:43;21.20;57.00
3172;DHT22;1597;51.572;6.992;2023-06-10T01:46:10;21.10;59.50
3172;DHT22;1597;51.572;6.992;2023-06-10T01:48:38;20.80;60.90
3172;DHT22;1597;51.572;6.992;2023-06-10T01:51:04;21.00;63.20
3172;DHT22;1597;51.572;6.992;2023-06-10T01:53:30;21.00;64.00
3172;DHT22;1597;51.572;6.992;2023-06-10T01:55:56;20.90;63.90
3172;DHT22;1597;51.572;6.992;2023-06-10T01:58:22;20.90;65.00
3172;DHT22;1597;51.572;6.992;2023-06-10T02:00:48;20.90;65.20
3172;DHT22;1597;51.572;6.992;2023-06-10T02:03:14;20.90;64.50
3172;DHT22;1597;51.572;6.992;2023-06-10T02:05:40;20.90;63.00
3172;DHT22;1597;51.572;6.992;2023-06-10T02:08:06;20.90;63.90
3172;DHT22;1597;51.572;6.992;2023-06-10T02:10:32;20.90;64.00
3172;DHT22;1597;51.572;6.992;2023-06-10T02:12:58;20.80;62.70
3172;DHT22;1597;51.572;6.992;2023-06-10T02:15:24;20.80;63.50
3172;DHT22;1597;51.572;6.992;2023-06-10T02:17:50;20.80;60.30
3172;DHT22;1597;51.572;6.992;2023-06-10T02:20:16;20.70;62.30
3172;DHT22;1597;51.572;6.992;2023-06-10T02:22:41;20.70;62.60
3172;DHT22;1597;51.572;6.992;2023-06-10T02:25:08;20.70;63.60
3172;DHT22;1597;51.572;6.992;2023-06-10T02:27:34;20.50;61.10
3172;DHT22;1597;51.572;6.992;2023-06-10T02:30:00;20.60;59.90
3172;DHT22;1597;51.572;6.992;2023-06-10T02:32:26;20.60;61.00
3172;DHT22;1597;51.572;6.992;2023-06-10T02:34:52;20.60;60.20
3172;DHT22;1597;51.572;6.992;2023-06-10T02:37:18;20.60;60.10
3172;DHT22;1597;51.572;6.992;2023-06-10T02:39:44;20.60;59.40
3172;DHT22;1597;51.572;6.992;2023-06-10T02:42:11;20.60;58.80
3172;DHT22;1597;51.572;6.992;2023-06-10T02:44:38;20.50;57.90
3172;DHT22;1597;51.572;6.992;2023-06-10T02:47:05;20.50;59.10
3172;DHT22;1597;51.572;6.992;2023-06-10T02:49:30;20.50;56.60
3172;DHT22;1597;51.572;6.992;2023-06-10T02:51:56;20.50;55.70
3172;DHT22;1597;51.572;6.992;2023-06-10T02:54:23;20.50;54.40
3172;DHT22;1597;51.572;6.992;2023-06-10T02:56:50;20.50;55.40
3172;DHT22;1597;51.572;6.992;2023-06-10T02:59:17;20.50;54.00
3172;DHT22;1597;51.572;6.992;2023-06-10T03:01:42;20.40;53.00
3172;DHT22;1597;51.572;6.992;2023-06-10T03:04:08;20.40;56.30
3172;DHT22;1597;51.572;6.992;2023-06-10T03:06:35;20.40;54.40
3172;DHT22;1597;51.572;6.992;2023-06-10T03:09:02;20.30;52.50
3172;DHT22;1597;51.572;6.992;2023-06-10T03:11:30;20.30;51.40
3172;DHT22;1597;51.572;6.992;2023-06-10T03:13:57;20.30;51.70
3172;DHT22;1597;51.572;6.992;2023-06-10T03:16:23;20.30;51.20
3172;DHT22;1597;51.572;6.992;2023-06-10T03:18:50;20.20;52.70
3172;DHT22;1597;51.572;6.992;2023-06-10T03:21:17;20.10;53.30
3172;DHT22;1597;51.572;6.992;2023-06-10T03:23:43;20.10;53.70
3172;DHT22;1597;51.572;6.992;2023-06-10T03:26:09;20.10;52.50
3172;DHT22;1597;51.572;6.992;2023-06-10T03:28:35;19.70;52.30
3172;DHT22;1597;51.572;6.992;2023-06-10T03:31:01;20.10;52.00
3172;DHT22;1597;51.572;6.992;2023-06-10T03:33:27;20.00;53.50
3172;DHT22;1597;51.572;6.992;2023-06-10T03:35:53;20.00;53.30
3172;DHT22;1597;51.572;6.992;2023-06-10T03:38:19;20.00;50.90
3172;DHT22;1597;51.572;6.992;2023-06-10T03:40:45;20.00;53.40
3172;DHT22;1597;51.572;6.992;2023-06-10T03:43:11;20.00;50.70
3172;DHT22;1597;51.572;6.992;2023-06-10T03:45:37;20.00;49.90
3172;DHT22;1597;51.572;6.992;2023-06-10T03:48:03;20.00;46.40
3172;DHT22;1597;51.572;6.992;2023-06-10T03:50:30;20.00;47.80
3172;DHT22;1597;51.572;6.992;2023-06-10T03:52:56;19.90;47.70
3172;DHT22;1597;51.572;6.992;2023-06-10T03:55:21;19.90;49.20
3172;DHT22;1597;51.572;6.992;2023-06-10T03:57:49;19.80;49.70
3172;DHT22;1597;51.572;6.992;2023-06-10T04:00:17;19.80;50.30
3172;DHT22;1597;51.572;6.992;2023-06-10T04:02:44;19.90;48.30
3172;DHT22;1597;51.572;6.992;2023-06-10T04:05:19;19.80;48.90
3172;DHT22;1597;51.572;6.992;2023-06-10T04:07:47;19.80;49.40
3172;DHT22;1597;51.572;6.992;2023-06-10T04:10:14;19.80;50.50
3172;DHT22;1597;51.572;6.992;2023-06-10T04:12:41;19.80;50.50
3172;DHT22;1597;51.572;6.992;2023-06-10T04:15:07;19.70;50.70
3172;DHT22;1597;51.572;6.992;2023-06-10T04:17:34;19.70;50.20
3172;DHT22;1597;51.572;6.992;2023-06-10T04:20:00;19.70;50.90
3172;DHT22;1597;51.572;6.992;2023-06-10T04:22:26;19.70;50.70
3172;DHT22;1597;51.572;6.992;2023-06-10T04:24:52;19.80;49.00
3172;DHT22;1597;51.572;6.992;2023-06-10T04:27:18;19.70;48.50
3172;DHT22;1597;51.572;6.992;2023-06-10T04:29:44;19.70;48.70
3172;DHT22;1597;51.572;6.992;2023-06-10T04:32:10;19.70;48.20
3172;DHT22;1597;51.572;6.992;2023-06-10T04:34:36;19.60;46.00
3172;DHT22;1597;51.572;6.992;2023-06-10T04:37:05;19.70;43.40
3172;DHT22;1597;51.572;6.992;2023-06-10T04:39:32;19.70;43.90
3172;DHT22;1597;51.572;6.992;2023-06-10T04:41:59;19.80;44.70
3172;DHT22;1597;51.572;6.992;2023-06-10T04:44:25;19.80;42.20
3172;DHT22;1597;51.572;6.992;2023-06-10T04:46:51;19.80;41.80
3172;DHT22;1597;51.572;6.992;2023-06-10T04:49:17;19.80;38.60
3172;DHT22;1597;51.572;6.992;2023-06-10T04:51:43;19.90;39.60
3172;DHT22;1597;51.572;6.992;2023-06-10T04:54:09;19.90;40.40
3172;DHT22;1597;51.572;6.992;2023-06-10T04:56:35;20.00;37.30
3172;DHT22;1597;51.572;6.992;2023-06-10T04:59:01;20.00;35.70
3172;DHT22;1597;51.572;6.992;2023-06-10T05:01:27;20.00;31.70
3172;DHT22;1597;51.572;6.992;2023-06-10T05:03:53;20.10;31.20
3172;DHT22;1597;51.572;6.992;2023-06-10T05:06:19;20.10;30.00
3172;DHT22;1597;51.572;6.992;2023-06-10T05:08:45;20.10;28.70
3172;DHT22;1597;51.572;6.992;2023-06-10T05:11:12;20.20;25.00
3172;DHT22;1597;51.572;6.992;2023-06-10T05:13:38;20.20;26.80
3172;DHT22;1597;51.572;6.992;2023-06-10T05:16:05;20.20;24.60
3172;DHT22;1597;51.572;6.992;2023-06-10T05:18:33;20.20;22.20
3172;DHT22;1597;51.572;6.992;2023-06-10T05:20:59;20.30;20.50
3172;DHT22;1597;51.572;6.992;2023-06-10T05:23:25;20.40;20.20
3172;DHT22;1597;51.572;6.992;2023-06-10T05:25:50;20.40;21.20
3172;DHT22;1597;51.572;6.992;2023-06-10T05:28:16;20.40;19.30
3172;DHT22;1597;51.572;6.992;2023-06-10T05:30:42;20.40;18.40
3172;DHT22;1597;51.572;6.992;2023-06-10T05:33:08;20.40;17.20
3172;DHT22;1597;51.572;6.992;2023-06-10T05:35:34;20.50;15.40
3172;DHT22;1597;51.572;6.992;2023-06-10T05:38:00;20.50;16.20
3172;DHT22;1597;51.572;6.992;2023-06-10T05:40:25;20.60;13.50
3172;DHT22;1597;51.572;6.992;2023-06-10T05:42:51;20.60;13.70
3172;DHT22;1597;51.572;6.992;2023-06-10T05:45:17;20.50;14.20
3172;DHT22;1597;51.572;6.992;2023-06-10T05:47:43;20.60;14.20
3172;DHT22;1597;51.572;6.992;2023-06-10T05:50:09;20.60;13.90
3172;DHT22;1597;51.572;6.992;2023-06-10T05:52:36;20.70;14.60
3172;DHT22;1597;51.572;6.992;2023-06-10T05:55:05;20.70;11.80
3172;DHT22;1597;51.572;6.992;2023-06-10T05:57:34;20.70;11.40
3172;DHT22;1597;51.572;6.992;2023-06-10T06:00:01;20.80;12.00
3172;DHT22;1597;51.572;6.992;2023-06-10T06:02:27;20.90;10.60
3172;DHT22;1597;51.572;6.992;2023-06-10T06:04:52;20.80;10.20
3172;DHT22;1597;51.572;6.992;2023-06-10T06:07:18;20.90;8.40
3172;DHT22;1597;51.572;6.992;2023-06-10T06:09:47;20.90;9.70
3172;DHT22;1597;51.572;6.992;2023-06-10T06:12:14;21.00;8.30
3172;DHT22;1597;51.572;6.992;2023-06-10T06:14:40;21.10;9.20
3172;DHT22;1597;51.572;6.992;2023-06-10T06:17:07;21.20;4.60
3172;DHT22;1597;51.572;6.992;2023-06-10T06:19:33;21.20;4.70
3172;DHT22;1597;51.572;6.992;2023-06-10T06:22:00;21.20;5.50
3172;DHT22;1597;51.572;6.992;2023-06-10T06:24:26;21.20;3.50
3172;DHT22;1597;51.572;6.992;2023-06-10T06:26:52;21.20;1.70
3172;DHT22;1597;51.572;6.992;2023-06-10T06:29:18;21.30;1.90
3172;DHT22;1597;51.572;6.992;2023-06-10T06:31:43;21.30;1.70
3172;DHT22;1597;51.572;6.992;2023-06-10T06:34:09;21.40;1.50
3172;DHT22;1597;51.572;6.992;2023-06-10T06:36:35;21.50;1.30
3172;DHT22;1597;51.572;6.992;2023-06-10T06:39:02;21.50;1.00
3172;DHT22;1597;51.572;6.992;2023-06-10T06:41:28;21.50;1.00
3172;DHT22;1597;51.572;6.992;2023-06-10T06:43:55;21.60;1.00
3172;DHT22;1597;51.572;6.992;2023-06-10T06:46:21;21.60;1.00
3172;DHT22;1597;51.572;6.992;2023-06-10T06:48:48;21.70;1.00
3172;DHT22;1597;51.572;6.992;2023-06-10T06:51:14;21.70;1.00
3172;DHT22;1597;51.572;6.992;2023-06-10T06:53:40;21.80;1.00
3172;DHT22;1597;51.572;6.992;2023-06-10T06:56:12;21.80;1.00
3172;DHT22;1597;51.572;6.992;2023-06-10T06:58:38;21.90;1.00
3172;DHT22;1597;51.572;6.992;2023-06-10T07:01:04;22.00;1.00
3172;DHT22;1597;51.572;6.992;2023-06-10T07:03:30;22.00;1.00
3172;DHT22;1597;51.572;6.992;2023-06-10T07:05:56;22.00;1.00
3172;DHT22;1597;51.572;6.992;2023-06-10T07:08:22;22.10;1.00
3172;DHT22;1597;51.572;6.992;2023-06-10T07:10:48;22.10;1.00
3172;DHT22;1597;51.572;6.992;2023-06-10T07:13:14;22.20;1.00
3172;DHT22;1597;51.572;6.992;2023-06-10T07:15:40;22.30;1.00
3172;DHT22;1597;51.572;6.992;2023-06-10T07:18:06;22.30;1.00
3172;DHT22;1597;51.572;6.992;2023-06-10T07:20:32;22.40;1.00
3172;DHT22;1597;51.572;6.992;2023-06-10T07:22:58;22.40;1.00
3172;DHT22;1597;51.572;6.992;2023-06-10T07:25:24;22.50;1.00
3172;DHT22;1597;51.572;6.992;2023-06-10T07:27:51;22.60;1.00
3172;DHT22;1597;51.572;6.992;2023-06-10T07:30:17;22.60;1.00
3172;DHT22;1597;51.572;6.992;2023-06-10T07:32:44;22.70;1.00
3172;DHT22;1597;51.572;6.992;2023-06-10T07:35:10;22.80;1.00
3172;DHT22;1597;51.572;6.992;2023-06-10T07:37:36;22.80;1.00
3172;DHT22;1597;51.572;6.992;2023-06-10T07:40:05;22.90;1.00
3172;DHT22;1597;51.572;6.992;2023-06-10T07:42:35;22.90;1.00
3172;DHT22;1597;51.572;6.992;2023-06-10T07:45:02;22.90;1.00
3172;DHT22;1597;51.572;6.992;2023-06-10T07:47:30;22.80;1.00
3172;DHT22;1597;51.572;6.992;2023-06-10T07:49:56;23.10;1.00
3172;DHT22;1597;51.572;6.992;2023-06-10T07:52:22;23.20;1.00
3172;DHT22;1597;51.572;6.992;2023-06-10T07:54:51;23.20;1.00
3172;DHT22;1597;51.572;6.992;2023-06-10T07:57:18;23.30;1.00
3172;DHT22;1597;51.572;6.992;2023-06-10T07:59:45;23.40;1.00
3172;DHT22;1597;51.572;6.992;2023-06-10T08:02:11;23.50;1.00
3172;DHT22;1597;51.572;6.992;2023-06-10T08:04:39;23.50;1.00
3172;DHT22;1597;51.572;6.992;2023-06-10T08:07:05;23.60;1.00
3172;DHT22;1597;51.572;6.992;2023-06-10T08:09:30;23.60;1.00
3172;DHT22;1597;51.572;6.992;2023-06-10T08:11:56;23.60;1.00
3172;DHT22;1597;51.572;6.992;2023-06-10T08:14:22;23.60;1.00
3172;DHT22;1597;51.572;6.992;2023-06-10T08:16:48;23.70;1.00
3172;DHT22;1597;51.572;6.992;2023-06-10T08:19:14;23.80;1.00
3172;DHT22;1597;51.572;6.992;2023-06-10T08:21:40;23.80;1.00
3172;DHT22;1597;51.572;6.992;2023-06-10T08:24:06;23.90;1.00
3172;DHT22;1597;51.572;6.992;2023-06-10T08:26:32;24.00;1.00
3172;DHT22;1597;51.572;6.992;2023-06-10T08:29:02;24.10;1.00
3172;DHT22;1597;51.572;6.992;2023-06-10T08:31:27;24.20;1.00
3172;DHT22;1597;51.572;6.992;2023-06-10T08:33:53;24.20;1.00
3172;DHT22;1597;51.572;6.992;2023-06-10T08:36:19;24.30;1.00
3172;DHT22;1597;51.572;6.992;2023-06-10T08:38:45;24.40;1.00
3172;DHT22;1597;51.572;6.992;2023-06-10T08:41:14;24.40;1.00
3172;DHT22;1597;51.572;6.992;2023-06-10T08:43:52;24.50;1.00
3172;DHT22;1597;51.572;6.992;2023-06-10T08:46:21;24.40;1.00
3172;DHT22;1597;51.572;6.992;2023-06-10T08:48:49;24.60;1.00
3172;DHT22;1597;51.572;6.992;2023-06-10T08:51:19;24.60;1.00
3172;DHT22;1597;51.572;6.992;2023-06-10T08:53:57;24.60;1.00
3172;DHT22;1597;51.572;6.992;2023-06-10T08:56:28;24.70;1.00
3172;DHT22;1597;51.572;6.992;2023-06-10T08:58:56;24.70;1.00
3172;DHT22;1597;51.572;6.992;2023-06-10T09:01:24;24.90;1.00
3172;DHT22;1597;51.572;6.992;2023-06-10T09:03:51;25.00;1.00
3172;DHT22;1597;51.572;6.992;2023-06-10T09:06:18;25.10;1.00
3172;DHT22;1597;51.572;6.992;2023-06-10T09:08:44;25.10;1.00
3172;DHT22;1597;51.572;6.992;2023-06-10T09:11:10;25.20;1.00
3172;DHT22;1597;51.572;6.992;2023-06-10T09:13:36;25.30;1.00
3172;DHT22;1597;51.572;6.992;2023-06-10T09:16:02;25.30;1.00
3172;DHT22;1597;51.572;6.992;2023-06-10T09:18:28;25.40;1.00
3172;DHT22;1597;51.572;6.992;2023-06-10T09:20:55;25.50;1.00
3172;DHT22;1597;51.572;6.992;2023-06-10T09:23:21;25.50;1.00
3172;DHT22;1597;51.572;6.992;2023-06-10T09:25:58;25.50;1.00
3172;DHT22;1597;51.572;6.992;2023-06-10T09:28:28;25.50;1.00
3172;DHT22;1597;51.572;6.992;2023-06-10T09:31:05;25.60;1.00
3172;DHT22;1597;51.572;6.992;2023-06-10T09:33:32;25.60;1.00
3172;DHT22;1597;51.572;6.992;2023-06-10T09:36:01;25.70;1.00
3172;DHT22;1597;51.572;6.992;2023-06-10T09:38:32;25.80;1.00
3172;DHT22;1597;51.572;6.992;2023-06-10T09:40:58;25.80;1.00
3172;DHT22;1597;51.572;6.992;2023-06-10T09:43:43;25.90;1.00
3172;DHT22;1597;51.572;6.992;2023-06-10T09:46:18;25.90;1.00
3172;DHT22;1597;51.572;6.992;2023-06-10T09:48:47;26.00;1.00
3172;DHT22;1597;51.572;6.992;2023-06-10T09:51:14;26.00;1.00
3172;DHT22;1597;51.572;6.992;2023-06-10T09:53:53;26.10;1.00
3172;DHT22;1597;51.572;6.992;2023-06-10T09:56:20;26.10;1.00
3172;DHT22;1597;51.572;6.992;2023-06-10T09:58:46;26.10;1.00
3172;DHT22;1597;51.572;6.992;2023-06-10T10:01:14;26.20;1.00
3172;DHT22;1597;51.572;6.992;2023-06-10T10:03:48;26.20;1.00
3172;DHT22;1597;51.572;6.992;2023-06-10T10:06:17;26.30;1.00
3172;DHT22;1597;51.572;6.992;2023-06-10T10:08:46;26.30;1.00
3172;DHT22;1597;51.572;6.992;2023-06-10T10:11:14;26.40;1.00
3172;DHT22;1597;51.572;6.992;2023-06-10T10:13:47;26.40;1.00
3172;DHT22;1597;51.572;6.992;2023-06-10T10:16:35;26.50;1.00
3172;DHT22;1597;51.572;6.992;2023-06-10T10:19:18;26.70;1.00
3172;DHT22;1597;51.572;6.992;2023-06-10T10:21:53;26.80;1.00
3172;DHT22;1597;51.572;6.992;2023-06-10T10:24:30;26.80;1.00
3172;DHT22;1597;51.572;6.992;2023-06-10T10:27:04;26.80;1.00
3172;DHT22;1597;51.572;6.992;2023-06-10T10:29:38;26.80;1.00
3172;DHT22;1597;51.572;6.992;2023-06-10T10:32:06;26.90;1.00
3172;DHT22;1597;51.572;6.992;2023-06-10T10:37:08;26.80;1.00
3172;DHT22;1597;51.572;6.992;2023-06-10T10:39:36;26.90;1.00
3172;DHT22;1597;51.572;6.992;2023-06-10T10:42:03;27.00;1.00
3172;DHT22;1597;51.572;6.992;2023-06-10T10:44:30;27.10;1.00
3172;DHT22;1597;51.572;6.992;2023-06-10T10:46:58;27.30;1.00
3172;DHT22;1597;51.572;6.992;2023-06-10T10:49:30;27.40;1.00
3172;DHT22;1597;51.572;6.992;2023-06-10T10:52:00;27.40;1.00
3172;DHT22;1597;51.572;6.992;2023-06-10T10:54:31;27.50;1.00
3172;DHT22;1597;51.572;6.992;2023-06-10T10:57:17;27.50;1.00
3172;DHT22;1597;51.572;6.992;2023-06-10T10:59:57;27.50;1.00
3172;DHT22;1597;51.572;6.992;2023-06-10T11:02:41;27.50;1.00
3172;DHT22;1597;51.572;6.992;2023-06-10T11:05:18;27.50;1.00
3172;DHT22;1597;51.572;6.992;2023-06-10T11:08:04;27.60;1.00
3172;DHT22;1597;51.572;6.992;2023-06-10T11:10:34;27.70;1.00
3172;DHT22;1597;51.572;6.992;2023-06-10T11:13:14;27.70;1.00
3172;DHT22;1597;51.572;6.992;2023-06-10T11:15:45;27.80;1.00
3172;DHT22;1597;51.572;6.992;2023-06-10T11:20:55;27.80;1.00
3172;DHT22;1597;51.572;6.992;2023-06-10T11:26:19;27.80;1.00
3172;DHT22;1597;51.572;6.992;2023-06-10T11:33:56;28.00;1.00
3172;DHT22;1597;51.572;6.992;2023-06-10T11:36:23;28.10;1.00
3172;DHT22;1597;51.572;6.992;2023-06-10T11:38:55;28.10;1.00
3172;DHT22;1597;51.572;6.992;2023-06-10T11:41:28;28.20;1.00
3172;DHT22;1597;51.572;6.992;2023-06-10T11:43:55;28.20;1.00
3172;DHT22;1597;51.572;6.992;2023-06-10T11:46:22;28.30;1.00
3172;DHT22;1597;51.572;6.992;2023-06-10T11:48:50;28.40;1.00
3172;DHT22;1597;51.572;6.992;2023-06-10T11:51:17;28.40;1.00
3172;DHT22;1597;51.572;6.992;2023-06-10T11:53:47;28.40;1.00
3172;DHT22;1597;51.572;6.992;2023-06-10T11:56:22;28.40;1.00
3172;DHT22;1597;51.572;6.992;2023-06-10T11:58:54;28.40;1.00
3172;DHT22;1597;51.572;6.992;2023-06-10T12:01:42;28.40;1.00
3172;DHT22;1597;51.572;6.992;2023-06-10T12:04:14;28.40;1.00
3172;DHT22;1597;51.572;6.992;2023-06-10T12:06:52;28.40;1.00
3172;DHT22;1597;51.572;6.992;2023-06-10T12:09:24;28.50;1.00
3172;DHT22;1597;51.572;6.992;2023-06-10T12:11:59;28.60;1.00
3172;DHT22;1597;51.572;6.992;2023-06-10T12:14:54;28.60;1.00
3172;DHT22;1597;51.572;6.992;2023-06-10T12:17:44;28.70;1.00
3172;DHT22;1597;51.572;6.992;2023-06-10T12:20:26;28.90;1.00
3172;DHT22;1597;51.572;6.992;2023-06-10T12:22:54;29.00;1.00
3172;DHT22;1597;51.572;6.992;2023-06-10T12:25:25;28.90;1.00
3172;DHT22;1597;51.572;6.992;2023-06-10T12:27:53;28.80;1.00
3172;DHT22;1597;51.572;6.992;2023-06-10T12:30:20;28.90;1.00
3172;DHT22;1597;51.572;6.992;2023-06-10T12:32:51;29.00;1.00
3172;DHT22;1597;51.572;6.992;2023-06-10T12:35:26;28.80;1.00
3172;DHT22;1597;51.572;6.992;2023-06-10T12:38:04;29.10;1.00
3172;DHT22;1597;51.572;6.992;2023-06-10T12:40:37;29.20;1.00
3172;DHT22;1597;51.572;6.992;2023-06-10T12:43:06;29.20;1.00
3172;DHT22;1597;51.572;6.992;2023-06-10T12:45:37;29.30;1.00
3172;DHT22;1597;51.572;6.992;2023-06-10T12:48:21;29.30;1.00
3172;DHT22;1597;51.572;6.992;2023-06-10T12:50:52;29.30;1.00
3172;DHT22;1597;51.572;6.992;2023-06-10T12:53:22;29.30;1.00
3172;DHT22;1597;51.572;6.992;2023-06-10T12:55:50;29.30;1.00
3172;DHT22;1597;51.572;6.992;2023-06-10T12:58:16;29.40;1.00
3172;DHT22;1597;51.572;6.992;2023-06-10T13:00:47;29.40;1.00
3172;DHT22;1597;51.572;6.992;2023-06-10T13:03:14;29.40;1.00
3172;DHT22;1597;51.572;6.992;2023-06-10T13:05:40;29.40;1.00
3172;DHT22;1597;51.572;6.992;2023-06-10T13:08:10;29.50;1.00
3172;DHT22;1597;51.572;6.992;2023-06-10T13:10:36;29.50;1.00
3172;DHT22;1597;51.572;6.992;2023-06-10T13:13:06;29.40;1.00
3172;DHT22;1597;51.572;6.992;2023-06-10T13:15:33;29.50;1.00
3172;DHT22;1597;51.572;6.992;2023-06-10T13:18:03;29.60;1.00
3172;DHT22;1597;51.572;6.992;2023-06-10T13:20:32;29.70;1.00
3172;DHT22;1597;51.572;6.992;2023-06-10T13:22:58;29.80;1.00
3172;DHT22;1597;51.572;6.992;2023-06-10T13:25:23;29.80;1.00
3172;DHT22;1597;51.572;6.992;2023-06-10T13:27:49;29.80;1.00
3172;DHT22;1597;51.572;6.992;2023-06-10T13:30:15;29.90;1.00
3172;DHT22;1597;51.572;6.992;2023-06-10T13:32:41;29.90;1.00
3172;DHT22;1597;51.572;6.992;2023-06-10T13:35:07;29.90;1.00
3172;DHT22;1597;51.572;6.992;2023-06-10T13:37:33;29.90;1.00
3172;DHT22;1597;51.572;6.992;2023-06-10T13:40:00;29.80;1.00
3172;DHT22;1597;51.572;6.992;2023-06-10T13:42:27;29.80;1.00
3172;DHT22;1597;51.572;6.992;2023-06-10T13:44:54;29.80;1.00
3172;DHT22;1597;51.572;6.992;2023-06-10T13:47:20;29.80;1.00
3172;DHT22;1597;51.572;6.992;2023-06-10T13:49:46;29.90;1.00
3172;DHT22;1597;51.572;6.992;2023-06-10T13:52:12;29.90;1.00
3172;DHT22;1597;51.572;6.992;2023-06-10T13:54:38;29.90;1.00
3172;DHT22;1597;51.572;6.992;2023-06-10T13:57:04;29.90;1.00
3172;DHT22;1597;51.572;6.992;2023-06-10T13:59:30;29.90;1.00
3172;DHT22;1597;51.572;6.992;2023-06-10T14:01:56;30.00;1.00
3172;DHT22;1597;51.572;6.992;2023-06-10T14:04:22;29.90;1.00
3172;DHT22;1597;51.572;6.992;2023-06-10T14:06:48;30.00;1.00
3172;DHT22;1597;51.572;6.992;2023-06-10T14:09:14;30.00;1.00
3172;DHT22;1597;51.572;6.992;2023-06-10T14:11:41;30.00;1.00
3172;DHT22;1597;51.572;6.992;2023-06-10T14:14:07;29.90;1.00
3172;DHT22;1597;51.572;6.992;2023-06-10T14:16:33;29.90;1.00
3172;DHT22;1597;51.572;6.992;2023-06-10T14:18:59;29.80;1.00
3172;DHT22;1597;51.572;6.992;2023-06-10T14:21:26;29.80;1.00
3172;DHT22;1597;51.572;6.992;2023-06-10T14:23:51;29.80;1.00
3172;DHT22;1597;51.572;6.992;2023-06-10T14:26:19;29.70;1.00
3172;DHT22;1597;51.572;6.992;2023-06-10T14:28:47;29.70;1.00
3172;DHT22;1597;51.572;6.992;2023-06-10T14:31:15;29.60;1.00
3172;DHT22;1597;51.572;6.992;2023-06-10T14:33:41;29.50;1.00
3172;DHT22;1597;51.572;6.992;2023-06-10T14:36:09;29.40;1.00
3172;DHT22;1597;51.572;6.992;2023-06-10T14:38:35;29.30;1.00
3172;DHT22;1597;51.572;6.992;2023-06-10T14:41:01;29.30;1.00
3172;DHT22;1597;51.572;6.992;2023-06-10T14:43:27;29.40;1.00
3172;DHT22;1597;51.572;6.992;2023-06-10T14:45:53;29.40;1.00
3172;DHT22;1597;51.572;6.992;2023-06-10T14:48:21;29.50;1.00
3172;DHT22;1597;51.572;6.992;2023-06-10T14:50:47;29.50;1.00
3172;DHT22;1597;51.572;6.992;2023-06-10T14:53:19;29.50;1.00
3172;DHT22;1597;51.572;6.992;2023-06-10T14:55:45;29.60;1.00
3172;DHT22;1597;51.572;6.992;2023-06-10T14:58:11;29.70;1.00
3172;DHT22;1597;51.572;6.992;2023-06-10T15:00:37;29.70;1.00
3172;DHT22;1597;51.572;6.992;2023-06-10T15:03:03;29.70;1.00
3172;DHT22;1597;51.572;6.992;2023-06-10T15:05:29;29.60;1.00
3172;DHT22;1597;51.572;6.992;2023-06-10T15:07:55;29.60;1.00
3172;DHT22;1597;51.572;6.992;2023-06-10T15:10:21;29.60;1.00
3172;DHT22;1597;51.572;6.992;2023-06-10T15:12:47;29.60;1.00
3172;DHT22;1597;51.572;6.992;2023-06-10T15:15:21;29.50;1.00
3172;DHT22;1597;51.572;6.992;2023-06-10T15:17:48;29.60;1.00
3172;DHT22;1597;51.572;6.992;2023-06-10T15:20:13;29.50;1.00
3172;DHT22;1597;51.572;6.992;2023-06-10T15:22:39;29.50;1.00
3172;DHT22;1597;51.572;6.992;2023-06-10T15:25:06;29.40;1.00
3172;DHT22;1597;51.572;6.992;2023-06-10T15:27:32;29.40;1.00
3172;DHT22;1597;51.572;6.992;2023-06-10T15:29:58;29.40;1.00
3172;DHT22;1597;51.572;6.992;2023-06-10T15:32:23;29.40;1.00
3172;DHT22;1597;51.572;6.992;2023-06-10T15:34:51;29.40;1.00
3172;DHT22;1597;51.572;6.992;2023-06-10T15:37:18;29.20;1.00
3172;DHT22;1597;51.572;6.992;2023-06-10T15:39:46;29.20;1.00
3172;DHT22;1597;51.572;6.992;2023-06-10T15:42:12;29.20;1.00
3172;DHT22;1597;51.572;6.992;2023-06-10T15:44:38;29.20;1.00
3172;DHT22;1597;51.572;6.992;2023-06-10T15:47:04;29.30;1.00
3172;DHT22;1597;51.572;6.992;2023-06-10T15:49:30;29.30;1.00
3172;DHT22;1597;51.572;6.992;2023-06-10T15:51:56;29.30;1.00
3172;DHT22;1597;51.572;6.992;2023-06-10T15:54:22;29.30;1.00
3172;DHT22;1597;51.572;6.992;2023-06-10T15:56:48;29.30;1.00
3172;DHT22;1597;51.572;6.992;2023-06-10T15:59:14;29.20;1.00
3172;DHT22;1597;51.572;6.992;2023-06-10T16:01:40;29.20;1.00
3172;DHT22;1597;51.572;6.992;2023-06-10T16:04:06;29.20;1.00
3172;DHT22;1597;51.572;6.992;2023-06-10T16:06:32;29.10;1.00
3172;DHT22;1597;51.572;6.992;2023-06-10T16:08:59;29.10;1.00
3172;DHT22;1597;51.572;6.992;2023-06-10T16:11:25;29.10;1.00
3172;DHT22;1597;51.572;6.992;2023-06-10T16:13:51;29.10;1.00
3172;DHT22;1597;51.572;6.992;2023-06-10T16:16:19;29.10;1.00
3172;DHT22;1597;51.572;6.992;2023-06-10T16:18:45;29.10;1.00
3172;DHT22;1597;51.572;6.992;2023-06-10T16:21:11;29.00;1.00
3172;DHT22;1597;51.572;6.992;2023-06-10T16:23:37;29.00;1.00
3172;DHT22;1597;51.572;6.992;2023-06-10T16:26:04;29.00;1.00
3172;DHT22;1597;51.572;6.992;2023-06-10T16:28:31;29.00;1.00
3172;DHT22;1597;51.572;6.992;2023-06-10T16:30:57;29.00;1.00
3172;DHT22;1597;51.572;6.992;2023-06-10T16:33:23;29.00;1.00
3172;DHT22;1597;51.572;6.992;2023-06-10T16:35:49;29.00;1.00
3172;DHT22;1597;51.572;6.992;2023-06-10T16:38:14;29.00;1.00